createdAt,value
2019-02-18T00:01:23.032Z,398.27
2019-02-18T00:03:49.917Z,372.80
2019-02-18T00:06:16.954Z,343.90
2019-02-18T00:08:43.898Z,374.20
2019-02-18T00:11:12.042Z,395.93
2019-02-18T00:13:38.884Z,323.77
2019-02-18T00:16:05.876Z,410.90
2019-02-18T00:18:32.886Z,492.47
2019-02-18T00:20:59.819Z,428.43
2019-02-18T00:23:26.900Z,339.13
2019-02-18T00:25:53.947Z,506.33
2019-02-18T00:28:20.867Z,509.00
2019-02-18T00:30:47.882Z,414.97
2019-02-18T00:33:14.840Z,434.57
2019-02-18T00:35:41.682Z,286.30
2019-02-18T00:38:08.646Z,435.97
2019-02-18T00:40:35.470Z,469.77
2019-02-18T00:43:02.498Z,438.57
2019-02-18T00:45:29.563Z,422.20
2019-02-18T00:47:56.384Z,319.43
2019-02-18T00:50:23.200Z,284.10
2019-02-18T00:52:50.063Z,343.40
2019-02-18T00:55:16.882Z,371.03
2019-02-18T00:57:43.690Z,399.80
2019-02-18T01:00:11.745Z,398.47
2019-02-18T01:02:38.674Z,431.57
2019-02-18T01:05:06.257Z,394.47
2019-02-18T01:07:35.200Z,424.20
2019-02-18T01:10:02.457Z,401.80
2019-02-18T01:12:29.465Z,443.07
2019-02-18T01:14:56.418Z,452.43
2019-02-18T01:17:23.354Z,431.30
2019-02-18T01:19:50.258Z,377.50
2019-02-18T01:22:17.098Z,399.63
2019-02-18T01:24:44.072Z,435.37
2019-02-18T01:27:11.401Z,466.80
2019-02-18T01:29:38.292Z,388.33
2019-02-18T01:32:05.125Z,410.67
2019-02-18T01:34:32.163Z,408.17
2019-02-18T01:36:59.015Z,436.73
2019-02-18T01:39:25.923Z,409.87
2019-02-18T01:41:52.942Z,425.20
2019-02-18T01:44:20.056Z,420.00
2019-02-18T01:46:46.853Z,418.87
2019-02-18T01:49:13.658Z,395.07
2019-02-18T01:51:40.670Z,407.33
2019-02-18T01:54:07.517Z,390.70
2019-02-18T01:56:34.565Z,353.23
2019-02-18T01:59:01.642Z,358.93
2019-02-18T02:01:28.573Z,356.73
2019-02-18T02:03:55.514Z,403.63
2019-02-18T02:06:22.710Z,361.10
2019-02-18T02:08:49.714Z,350.70
2019-02-18T02:11:16.524Z,375.77
2019-02-18T02:13:43.501Z,372.00
2019-02-18T02:16:11.328Z,374.60
2019-02-18T02:18:38.296Z,306.93
2019-02-18T02:21:05.457Z,361.37
2019-02-18T02:23:32.417Z,397.93
2019-02-18T02:25:59.351Z,321.00
2019-02-18T02:28:26.310Z,357.13
2019-02-18T02:30:53.240Z,381.07
2019-02-18T02:33:20.263Z,356.27
2019-02-18T02:35:47.313Z,387.37
2019-02-18T02:38:14.260Z,332.83
2019-02-18T02:40:41.291Z,397.80
2019-02-18T02:43:08.133Z,340.33
2019-02-18T02:45:35.094Z,359.27
2019-02-18T02:48:02.272Z,356.53
2019-02-18T02:50:29.151Z,350.37
2019-02-18T02:52:56.269Z,342.73
2019-02-18T02:55:23.299Z,326.77
2019-02-18T02:57:50.256Z,328.57
2019-02-18T03:00:17.294Z,310.53
2019-02-18T03:02:44.221Z,336.27
2019-02-18T03:05:11.276Z,282.70
2019-02-18T03:07:38.285Z,284.57
2019-02-18T03:10:05.390Z,270.03
2019-02-18T03:12:32.238Z,244.53
2019-02-18T03:14:59.072Z,228.03
2019-02-18T03:17:26.026Z,249.87
2019-02-18T03:19:52.863Z,218.60
2019-02-18T03:22:19.791Z,208.97
2019-02-18T03:25:15.436Z,222.97
2019-02-18T03:27:42.365Z,219.47
2019-02-18T03:30:38.051Z,200.23
2019-02-18T03:33:05.038Z,198.03
2019-02-18T03:35:31.945Z,206.40
2019-02-18T03:37:58.905Z,199.27
2019-02-18T03:40:25.939Z,185.00
2019-02-18T03:42:52.862Z,200.17
2019-02-18T03:45:19.926Z,192.13
2019-02-18T03:47:46.855Z,192.23
2019-02-18T03:50:13.762Z,195.00
2019-02-18T03:52:40.621Z,198.93
2019-02-18T03:55:07.903Z,188.47
2019-02-18T03:57:35.092Z,201.10
2019-02-18T04:00:02.433Z,177.13
2019-02-18T04:02:29.447Z,175.80
2019-02-18T04:04:56.488Z,162.67
2019-02-18T04:07:23.347Z,179.17
2019-02-18T04:09:50.263Z,160.60
2019-02-18T04:12:17.083Z,170.03
2019-02-18T04:14:44.062Z,158.17
2019-02-18T04:17:11.086Z,178.07
2019-02-18T04:19:37.914Z,185.20
2019-02-18T04:22:04.919Z,156.87
2019-02-18T04:24:31.837Z,176.27
2019-02-18T04:26:58.643Z,158.80
2019-02-18T04:29:25.526Z,164.60
2019-02-18T04:31:52.574Z,158.70
2019-02-18T04:34:19.449Z,148.53
2019-02-18T04:36:46.402Z,166.57
2019-02-18T04:39:13.213Z,164.70
2019-02-18T04:41:40.023Z,160.67
2019-02-18T04:44:06.862Z,165.07
2019-02-18T04:46:33.678Z,158.33
2019-02-18T04:49:00.604Z,148.63
2019-02-18T04:51:27.584Z,155.10
2019-02-18T04:53:54.615Z,142.93
2019-02-18T04:56:21.546Z,155.17
2019-02-18T04:58:48.479Z,161.73
2019-02-18T05:01:15.325Z,159.70
2019-02-18T05:03:42.245Z,148.93
2019-02-18T05:06:09.168Z,152.43
2019-02-18T05:08:35.999Z,167.50
2019-02-18T05:11:03.016Z,154.77
2019-02-18T05:13:30.056Z,167.37
2019-02-18T05:15:56.911Z,177.40
2019-02-18T05:18:23.850Z,163.80
2019-02-18T05:20:50.701Z,179.63
2019-02-18T05:23:17.535Z,166.73
2019-02-18T05:25:44.445Z,160.90
2019-02-18T05:28:11.284Z,170.30
2019-02-18T05:30:38.121Z,154.97
2019-02-18T05:33:05.066Z,169.90
2019-02-18T05:35:31.964Z,151.07
2019-02-18T05:37:58.890Z,154.97
2019-02-18T05:40:25.698Z,152.30
2019-02-18T05:42:52.561Z,159.43
2019-02-18T05:45:19.606Z,169.07
2019-02-18T05:47:46.510Z,175.17
2019-02-18T05:50:13.588Z,193.67
2019-02-18T05:52:40.424Z,182.53
2019-02-18T05:55:07.465Z,169.27
2019-02-18T05:57:34.535Z,198.03
2019-02-18T06:00:01.447Z,198.43
2019-02-18T06:02:28.365Z,182.73
2019-02-18T06:04:55.228Z,201.80
2019-02-18T06:07:22.143Z,195.03
2019-02-18T06:09:48.997Z,206.77
2019-02-18T06:12:16.010Z,209.53
2019-02-18T06:14:42.826Z,235.17
2019-02-18T06:17:09.855Z,256.30
2019-02-18T06:19:36.725Z,288.33
2019-02-18T06:22:03.737Z,286.83
2019-02-18T06:24:30.538Z,279.00
2019-02-18T06:26:57.382Z,325.20
2019-02-18T06:29:24.271Z,386.47
2019-02-18T06:31:51.164Z,419.90
2019-02-18T06:34:18.338Z,379.10
2019-02-18T06:36:45.435Z,419.43
2019-02-18T06:39:14.604Z,446.83
2019-02-18T06:41:41.465Z,489.53
2019-02-18T06:44:08.296Z,475.87
2019-02-18T06:46:50.498Z,520.33
2019-02-18T06:49:19.567Z,501.20
2019-02-18T06:51:46.489Z,422.70
2019-02-18T06:54:13.366Z,474.73
2019-02-18T06:56:58.408Z,517.90
2019-02-18T06:59:31.971Z,515.80
2019-02-18T07:02:04.749Z,536.90
2019-02-18T07:04:36.140Z,527.57
2019-02-18T07:07:21.766Z,535.40
2019-02-18T07:09:53.562Z,517.83
2019-02-18T07:12:31.865Z,536.13
2019-02-18T07:15:18.535Z,551.23
2019-02-18T07:17:45.391Z,533.83
2019-02-18T07:20:12.301Z,536.03
2019-02-18T07:22:39.170Z,498.63
2019-02-18T07:25:07.484Z,416.73
2019-02-18T07:27:34.455Z,421.87
2019-02-18T07:30:01.539Z,443.37
2019-02-18T07:32:28.378Z,435.87
2019-02-18T07:34:55.355Z,354.43
2019-02-18T07:37:22.529Z,405.20
2019-02-18T07:39:49.398Z,389.30
2019-02-18T07:42:16.317Z,417.47
2019-02-18T07:44:43.175Z,451.20
2019-02-18T07:47:10.267Z,407.43
2019-02-18T07:49:37.094Z,401.73
2019-02-18T07:52:04.250Z,406.10
2019-02-18T07:54:31.063Z,362.13
2019-02-18T07:56:58.084Z,357.77
2019-02-18T07:59:24.937Z,369.30
2019-02-18T08:01:51.884Z,344.17
2019-02-18T08:04:18.911Z,332.07
2019-02-18T08:06:45.983Z,331.13
2019-02-18T08:09:12.906Z,311.00
2019-02-18T08:11:39.848Z,289.97
2019-02-18T08:14:06.717Z,294.53
2019-02-18T08:16:33.630Z,301.23
2019-02-18T08:19:00.696Z,309.33
2019-02-18T08:21:27.575Z,322.30
2019-02-18T08:24:00.155Z,267.73
2019-02-18T08:26:23.775Z,295.47
2019-02-18T08:28:50.745Z,272.03
2019-02-18T08:31:17.689Z,249.53
2019-02-18T08:33:44.520Z,234.90
2019-02-18T08:36:11.591Z,247.27
2019-02-18T08:38:38.654Z,239.20
2019-02-18T08:41:05.815Z,210.33
2019-02-18T08:43:32.980Z,200.93
2019-02-18T08:45:59.811Z,194.03
2019-02-18T08:48:26.662Z,196.40
2019-02-18T08:50:53.619Z,188.50
2019-02-18T08:53:20.458Z,185.70
2019-02-18T08:55:47.297Z,166.97
2019-02-18T08:58:14.251Z,177.27
2019-02-18T09:00:41.175Z,164.77
2019-02-18T09:03:08.095Z,165.10
2019-02-18T09:05:35.057Z,169.20
2019-02-18T09:08:02.101Z,163.67
2019-02-18T09:10:33.615Z,159.30
2019-02-18T09:12:58.007Z,154.70
2019-02-18T09:15:25.145Z,132.43
2019-02-18T09:17:52.090Z,133.87
2019-02-18T09:20:19.115Z,142.07
2019-02-18T09:23:04.419Z,120.90
2019-02-18T09:25:51.748Z,124.57
2019-02-18T09:28:18.699Z,114.83
2019-02-18T09:30:49.373Z,112.03
2019-02-18T09:33:16.315Z,107.07
2019-02-18T09:35:43.346Z,113.70
2019-02-18T09:38:10.247Z,109.73
2019-02-18T09:40:44.270Z,103.90
2019-02-18T09:43:06.162Z,103.63
2019-02-18T09:45:33.180Z,104.60
2019-02-18T09:48:00.274Z,101.17
2019-02-18T09:50:27.376Z,102.73
2019-02-18T09:52:54.346Z,93.33
2019-02-18T09:55:21.324Z,88.77
2019-02-18T09:57:48.256Z,90.33
2019-02-18T10:00:15.291Z,84.23
2019-02-18T10:02:42.265Z,95.63
2019-02-18T10:05:09.220Z,90.23
2019-02-18T10:07:36.454Z,81.37
2019-02-18T10:10:04.739Z,79.93
2019-02-18T10:12:32.027Z,83.07
2019-02-18T10:14:58.949Z,85.37
2019-02-18T10:17:26.128Z,76.00
2019-02-18T10:19:53.182Z,71.23
2019-02-18T10:22:20.014Z,66.00
2019-02-18T10:24:50.407Z,74.40
2019-02-18T10:27:15.805Z,64.63
2019-02-18T10:29:42.723Z,69.63
2019-02-18T10:32:09.770Z,63.13
2019-02-18T10:34:36.591Z,64.83
2019-02-18T10:37:03.610Z,68.63
2019-02-18T10:39:30.477Z,71.43
2019-02-18T10:41:57.494Z,61.33
2019-02-18T10:44:37.306Z,62.33
2019-02-18T10:47:17.443Z,64.73
2019-02-18T10:49:44.308Z,64.43
2019-02-18T10:52:11.220Z,63.87
2019-02-18T10:54:38.237Z,65.57
2019-02-18T10:57:05.306Z,61.27
2019-02-18T10:59:32.310Z,61.23
2019-02-18T11:01:59.226Z,60.00
2019-02-18T11:04:26.477Z,69.23
2019-02-18T11:06:53.390Z,62.03
2019-02-18T11:09:20.446Z,59.33
2019-02-18T11:11:47.515Z,60.80
2019-02-18T11:14:14.441Z,57.30
2019-02-18T11:16:41.261Z,59.57
2019-02-18T11:19:08.262Z,61.30
2019-02-18T11:21:35.185Z,56.87
2019-02-18T11:24:02.206Z,57.97
2019-02-18T11:26:29.260Z,55.00
2019-02-18T11:28:56.281Z,57.43
2019-02-18T11:31:23.528Z,56.60
2019-02-18T11:33:50.370Z,54.03
2019-02-18T11:36:17.400Z,52.33
2019-02-18T11:38:44.316Z,52.27
2019-02-18T11:41:11.308Z,52.27
2019-02-18T11:43:38.214Z,49.97
2019-02-18T11:46:05.141Z,55.07
2019-02-18T11:48:32.378Z,46.50
2019-02-18T11:50:59.393Z,48.17
2019-02-18T11:53:26.310Z,48.47
2019-02-18T11:55:53.259Z,51.77
2019-02-18T11:58:20.276Z,48.57
2019-02-18T12:00:47.180Z,48.53
2019-02-18T12:03:14.112Z,62.73
2019-02-18T12:05:41.637Z,48.60
2019-02-18T12:08:08.640Z,54.90
2019-02-18T12:10:35.591Z,49.50
2019-02-18T12:13:02.725Z,50.47
2019-02-18T12:15:29.648Z,51.00
2019-02-18T12:17:56.627Z,53.10
2019-02-18T12:20:23.548Z,47.47
2019-02-18T12:22:50.421Z,48.20
2019-02-18T12:25:17.384Z,51.37
2019-02-18T12:27:44.286Z,51.57
2019-02-18T12:30:11.732Z,55.57
2019-02-18T12:32:38.897Z,50.17
2019-02-18T12:35:06.162Z,46.03
2019-02-18T12:37:33.174Z,45.73
2019-02-18T12:40:00.025Z,48.33
2019-02-18T12:42:26.843Z,47.27
2019-02-18T12:44:54.153Z,46.57
2019-02-18T12:47:21.222Z,47.07
2019-02-18T12:49:48.097Z,46.40
2019-02-18T12:52:15.025Z,43.37
2019-02-18T12:54:42.009Z,44.47
2019-02-18T12:57:08.920Z,44.70
2019-02-18T12:59:36.002Z,45.67
2019-02-18T13:02:03.193Z,46.10
2019-02-18T13:04:32.043Z,43.90
2019-02-18T13:06:59.082Z,41.87
2019-02-18T13:09:26.068Z,43.20
2019-02-18T13:11:58.936Z,43.83
2019-02-18T13:14:22.052Z,51.57
2019-02-18T13:16:49.158Z,40.17
2019-02-18T13:19:16.077Z,41.50
2019-02-18T13:21:43.000Z,46.33
2019-02-18T13:24:10.156Z,40.70
2019-02-18T13:26:37.583Z,41.53
2019-02-18T13:29:04.676Z,43.37
2019-02-18T13:31:31.680Z,39.60
2019-02-18T13:33:58.641Z,46.07
2019-02-18T13:36:25.659Z,39.23
2019-02-18T13:38:52.735Z,44.13
2019-02-18T13:41:19.753Z,43.20
2019-02-18T13:43:46.686Z,42.47
2019-02-18T13:46:13.732Z,43.07
2019-02-18T13:48:40.761Z,48.63
2019-02-18T13:51:07.790Z,42.23
2019-02-18T13:53:34.768Z,45.20
2019-02-18T13:56:01.876Z,46.63
2019-02-18T13:58:28.875Z,40.60
2019-02-18T14:00:55.849Z,45.23
2019-02-18T14:03:23.191Z,43.33
2019-02-18T14:05:50.197Z,45.67
2019-02-18T14:08:17.121Z,42.57
2019-02-18T14:10:44.117Z,41.87
2019-02-18T14:13:11.155Z,46.53
2019-02-18T14:15:38.097Z,42.23
2019-02-18T14:18:05.222Z,54.57
2019-02-18T14:20:32.229Z,43.43
2019-02-18T14:22:59.306Z,40.20
2019-02-18T14:25:26.231Z,44.80
2019-02-18T14:27:53.167Z,41.10
2019-02-18T14:30:20.603Z,45.73
2019-02-18T14:32:47.653Z,40.30
2019-02-18T14:35:15.831Z,48.27
2019-02-18T14:37:42.795Z,48.87
2019-02-18T14:40:12.556Z,47.43
2019-02-18T14:42:39.595Z,47.47
2019-02-18T14:45:06.614Z,51.00
2019-02-18T14:47:33.662Z,44.10
2019-02-18T14:50:00.676Z,48.13
2019-02-18T14:52:27.748Z,48.13
2019-02-18T14:54:54.670Z,43.73
2019-02-18T14:57:22.803Z,40.40
2019-02-18T14:59:49.895Z,45.67
2019-02-18T15:02:17.152Z,48.77
2019-02-18T15:04:44.478Z,48.97
2019-02-18T15:07:11.459Z,47.17
2019-02-18T15:09:38.390Z,50.70
2019-02-18T15:12:06.113Z,47.90
2019-02-18T15:14:33.362Z,47.53
2019-02-18T15:17:00.194Z,45.90
2019-02-18T15:19:27.129Z,49.40
2019-02-18T15:21:54.008Z,61.10
2019-02-18T15:24:21.013Z,55.87
2019-02-18T15:26:47.930Z,49.07
2019-02-18T15:29:15.072Z,47.70
2019-02-18T15:31:41.925Z,50.63
2019-02-18T15:34:09.167Z,47.83
2019-02-18T15:36:36.129Z,49.60
2019-02-18T15:39:04.987Z,49.33
2019-02-18T15:41:32.159Z,51.40
2019-02-18T15:43:59.113Z,52.13
2019-02-18T15:46:26.230Z,52.17
2019-02-18T15:48:53.348Z,48.00
2019-02-18T15:51:20.836Z,54.43
2019-02-18T15:53:47.743Z,51.80
2019-02-18T15:56:15.017Z,49.30
2019-02-18T15:58:42.210Z,48.87
2019-02-18T16:01:09.350Z,50.50
2019-02-18T16:03:36.251Z,49.00
2019-02-18T16:06:03.522Z,56.80
2019-02-18T16:08:31.066Z,57.20
2019-02-18T16:10:58.086Z,55.90
2019-02-18T16:13:25.034Z,53.33
2019-02-18T16:15:52.077Z,56.13
2019-02-18T16:18:19.005Z,61.37
2019-02-18T16:20:46.086Z,55.17
2019-02-18T16:23:12.975Z,54.47
2019-02-18T16:25:39.878Z,59.47
2019-02-18T16:28:07.137Z,57.83
2019-02-18T16:30:34.166Z,56.87
2019-02-18T16:33:01.169Z,62.80
2019-02-18T16:35:28.635Z,57.70
2019-02-18T16:37:56.236Z,58.80
2019-02-18T16:40:23.695Z,56.33
2019-02-18T16:42:58.909Z,60.97
2019-02-18T16:45:20.388Z,59.53
2019-02-18T16:47:47.422Z,60.80
2019-02-18T16:50:14.531Z,57.47
2019-02-18T16:52:41.582Z,62.93
2019-02-18T16:55:09.759Z,67.03
2019-02-18T16:57:38.181Z,65.40
2019-02-18T17:00:13.738Z,60.13
2019-02-18T17:02:40.706Z,63.70
2019-02-18T17:05:07.941Z,61.30
2019-02-18T17:07:34.877Z,63.83
2019-02-18T17:10:04.517Z,63.07
2019-02-18T17:12:31.532Z,64.17
2019-02-18T17:14:58.709Z,70.03
2019-02-18T17:17:26.111Z,73.63
2019-02-18T17:19:53.143Z,67.20
2019-02-18T17:22:20.120Z,67.17
2019-02-18T17:24:47.478Z,69.03
2019-02-18T17:27:14.418Z,65.07
2019-02-18T17:29:41.231Z,65.40
2019-02-18T17:32:08.206Z,64.17
2019-02-18T17:34:35.650Z,71.37
2019-02-18T17:37:02.615Z,69.77
2019-02-18T17:39:29.812Z,67.93
2019-02-18T17:41:56.753Z,71.70
2019-02-18T17:44:23.790Z,66.07
2019-02-18T17:46:50.714Z,70.50
2019-02-18T17:49:17.554Z,68.87
2019-02-18T17:51:44.710Z,72.77
2019-02-18T17:54:12.196Z,74.37
2019-02-18T17:56:39.024Z,74.83
2019-02-18T17:59:05.957Z,70.53
2019-02-18T18:01:32.940Z,69.03
2019-02-18T18:03:59.877Z,70.10
2019-02-18T18:06:26.916Z,71.33
2019-02-18T18:08:54.080Z,69.97
2019-02-18T18:11:21.194Z,77.07
2019-02-18T18:13:48.338Z,76.53
2019-02-18T18:16:15.528Z,71.37
2019-02-18T18:18:42.455Z,73.93
2019-02-18T18:21:09.369Z,79.80
2019-02-18T18:23:36.349Z,75.00
2019-02-18T18:26:03.279Z,81.00
2019-02-18T18:28:30.297Z,75.33
2019-02-18T18:30:57.548Z,80.80
2019-02-18T18:33:24.708Z,77.87
2019-02-18T18:35:51.842Z,82.80
2019-02-18T18:38:18.800Z,79.83
2019-02-18T18:40:45.834Z,84.13
2019-02-18T18:43:12.736Z,80.70
2019-02-18T18:45:39.986Z,86.93
2019-02-18T18:48:07.424Z,78.93
2019-02-18T18:50:34.573Z,80.17
2019-02-18T18:53:01.774Z,78.40
2019-02-18T18:55:28.771Z,80.97
2019-02-18T18:57:55.790Z,75.60
2019-02-18T19:00:24.465Z,82.00
2019-02-18T19:02:51.610Z,83.97
2019-02-18T19:05:19.163Z,84.27
2019-02-18T19:07:46.017Z,86.53
2019-02-18T19:10:13.036Z,90.10
2019-02-18T19:12:40.046Z,87.43
2019-02-18T19:15:07.714Z,91.13
2019-02-18T19:17:34.672Z,86.07
2019-02-18T19:20:01.584Z,87.17
2019-02-18T19:22:30.267Z,91.40
2019-02-18T19:24:57.218Z,92.23
2019-02-18T19:27:24.142Z,92.00
2019-02-18T19:29:51.093Z,89.70
2019-02-18T19:32:18.142Z,91.43
2019-02-18T19:34:45.045Z,86.17
2019-02-18T19:37:12.012Z,84.17
2019-02-18T19:39:39.346Z,91.00
2019-02-18T19:42:06.262Z,87.60
2019-02-18T19:44:33.120Z,93.00
2019-02-18T19:47:00.134Z,87.97
2019-02-18T19:49:27.064Z,89.47
2019-02-18T19:51:53.897Z,99.67
2019-02-18T19:54:20.715Z,95.90
2019-02-18T19:56:48.142Z,98.67
2019-02-18T19:59:15.111Z,102.03
2019-02-18T20:01:41.939Z,92.00
2019-02-18T20:04:08.818Z,90.40
2019-02-18T20:06:35.787Z,94.13
2019-02-18T20:09:05.891Z,88.73
2019-02-18T20:11:32.795Z,87.97
2019-02-18T20:14:00.077Z,92.77
2019-02-18T20:16:26.915Z,94.50
2019-02-18T20:18:53.858Z,85.47
2019-02-18T20:21:20.966Z,97.60
2019-02-18T20:23:47.868Z,97.63
2019-02-18T20:26:14.796Z,93.87
2019-02-18T20:28:41.858Z,99.50
2019-02-18T20:31:09.302Z,99.47
2019-02-18T20:33:36.263Z,104.07
2019-02-18T20:36:03.293Z,101.13
2019-02-18T20:38:30.210Z,98.57
2019-02-18T20:40:57.230Z,92.97
2019-02-18T20:43:24.170Z,95.37
2019-02-18T20:45:51.011Z,102.20
2019-02-18T20:48:17.850Z,99.47
2019-02-18T20:50:44.785Z,98.47
2019-02-18T20:53:11.781Z,114.00
2019-02-18T20:55:38.708Z,119.00
2019-02-18T20:58:05.761Z,113.07
2019-02-18T21:00:32.779Z,110.97
2019-02-18T21:02:59.594Z,126.57
2019-02-18T21:05:26.458Z,117.07
2019-02-18T21:07:53.686Z,113.80
2019-02-18T21:10:20.725Z,105.47
2019-02-18T21:12:47.769Z,101.67
2019-02-18T21:15:14.887Z,93.87
2019-02-18T21:17:41.918Z,107.73
2019-02-18T21:20:09.042Z,103.70
2019-02-18T21:22:36.045Z,104.03
2019-02-18T21:25:03.698Z,106.67
2019-02-18T21:27:30.540Z,107.87
2019-02-18T21:29:57.334Z,102.73
2019-02-18T21:32:24.122Z,102.13
2019-02-18T21:34:50.979Z,98.70
2019-02-18T21:37:17.886Z,94.70
2019-02-18T21:40:04.451Z,98.50
2019-02-18T21:42:31.410Z,91.03
2019-02-18T21:44:58.206Z,78.87
2019-02-18T21:47:25.158Z,84.43
2019-02-18T21:49:52.077Z,79.13
2019-02-18T21:52:18.995Z,75.73
2019-02-18T21:54:45.926Z,71.97
2019-02-18T21:57:13.154Z,63.60
2019-02-18T21:59:40.552Z,64.27
2019-02-18T22:02:07.482Z,71.43
2019-02-18T22:04:34.297Z,69.10
2019-02-18T22:07:01.161Z,66.33
2019-02-18T22:09:28.165Z,69.90
2019-02-18T22:11:54.974Z,70.20
2019-02-18T22:14:21.797Z,69.53
2019-02-18T22:16:49.144Z,68.00
2019-02-18T22:19:15.946Z,70.93
2019-02-18T22:21:42.762Z,72.53
2019-02-18T22:24:09.715Z,68.77
2019-02-18T22:26:36.535Z,74.10
2019-02-18T22:29:03.452Z,72.50
2019-02-18T22:31:30.403Z,74.03
2019-02-18T22:33:57.227Z,67.27
2019-02-18T22:36:24.342Z,68.90
2019-02-18T22:38:51.183Z,75.60
2019-02-18T22:41:18.087Z,76.83
2019-02-18T22:43:45.001Z,69.90
2019-02-18T22:46:12.117Z,73.30
2019-02-18T22:48:39.023Z,73.57
2019-02-18T22:51:05.981Z,70.47
2019-02-18T22:53:33.056Z,70.80
2019-02-18T22:56:00.165Z,69.27
2019-02-18T22:58:27.191Z,71.67
2019-02-18T23:00:57.840Z,69.83
2019-02-18T23:03:24.928Z,67.10
2019-02-18T23:05:52.042Z,71.63
2019-02-18T23:08:19.006Z,69.47
2019-02-18T23:10:45.914Z,70.07
2019-02-18T23:13:12.738Z,74.30
2019-02-18T23:15:39.688Z,70.23
2019-02-18T23:18:06.605Z,70.30
2019-02-18T23:20:33.616Z,65.47
2019-02-18T23:23:00.585Z,78.03
2019-02-18T23:25:27.495Z,68.73
2019-02-18T23:27:54.420Z,69.23
2019-02-18T23:30:21.396Z,71.03
2019-02-18T23:32:48.409Z,69.67
2019-02-18T23:35:15.418Z,71.40
2019-02-18T23:37:42.353Z,75.23
2019-02-18T23:40:09.290Z,68.43
2019-02-18T23:42:36.461Z,70.07
2019-02-18T23:45:03.554Z,71.10
2019-02-18T23:47:30.390Z,64.33
2019-02-18T23:49:57.201Z,68.30
2019-02-18T23:52:24.191Z,61.67
2019-02-18T23:54:51.112Z,65.47
2019-02-18T23:57:18.135Z,60.53
2019-02-18T23:59:45.194Z,57.43
